createdAt,value
2023-03-28T00:01:40.630Z,38.31
2023-03-28T00:04:11.588Z,38.52
2023-03-28T00:06:39.767Z,38.60
2023-03-28T00:09:07.558Z,38.30
2023-03-28T00:11:35.577Z,38.17
2023-03-28T00:14:03.896Z,38.86
2023-03-28T00:16:33.010Z,38.62
2023-03-28T00:19:01.366Z,38.72
2023-03-28T00:21:29.577Z,38.19
2023-03-28T00:23:57.357Z,38.56
2023-03-28T00:26:26.690Z,38.00
2023-03-28T00:28:54.744Z,37.91
2023-03-28T00:31:22.585Z,38.21
2023-03-28T00:33:50.484Z,38.23
2023-03-28T00:36:22.930Z,38.68
2023-03-28T00:38:52.412Z,38.12
2023-03-28T00:41:22.180Z,38.90
2023-03-28T00:43:50.064Z,39.03
2023-03-28T00:46:18.049Z,38.16
2023-03-28T00:48:45.865Z,38.47
2023-03-28T00:51:14.865Z,38.25
2023-03-28T00:53:42.885Z,38.71
2023-03-28T00:56:11.621Z,38.22
2023-03-28T00:58:39.699Z,38.66
2023-03-28T01:01:08.529Z,38.30
2023-03-28T01:03:37.851Z,37.93
2023-03-28T01:06:06.291Z,38.06
2023-03-28T01:08:34.281Z,38.74
2023-03-28T01:11:02.027Z,38.05
2023-03-28T01:13:29.767Z,38.65
2023-03-28T01:15:59.319Z,38.43
2023-03-28T01:18:27.420Z,38.62
2023-03-28T01:20:55.593Z,38.29
2023-03-28T01:23:23.411Z,38.53
2023-03-28T01:25:51.288Z,38.27
2023-03-28T01:28:19.855Z,38.19
2023-03-28T01:30:47.666Z,38.60
2023-03-28T01:33:15.591Z,38.24
2023-03-28T01:35:43.540Z,37.27
2023-03-28T01:38:12.239Z,38.52
2023-03-28T01:40:40.028Z,38.03
2023-03-28T01:43:08.003Z,38.70
2023-03-28T01:45:36.023Z,38.02
2023-03-28T01:48:03.956Z,38.52
2023-03-28T01:50:31.954Z,37.87
2023-03-28T01:52:59.921Z,37.91
2023-03-28T01:55:30.282Z,38.45
2023-03-28T01:57:58.153Z,38.59
2023-03-28T02:00:25.984Z,38.21
2023-03-28T02:02:53.933Z,37.88
2023-03-28T02:05:21.730Z,38.34
2023-03-28T02:07:49.662Z,38.10
2023-03-28T02:10:17.486Z,38.10
2023-03-28T02:12:45.492Z,38.34
2023-03-28T02:15:13.898Z,38.49
2023-03-28T02:17:41.800Z,38.03
2023-03-28T02:20:11.678Z,38.43
2023-03-28T02:22:39.666Z,38.56
2023-03-28T02:25:07.461Z,38.69
2023-03-28T02:27:36.954Z,38.56
2023-03-28T02:30:04.794Z,37.79
2023-03-28T02:32:34.270Z,37.80
2023-03-28T02:35:02.117Z,37.92
2023-03-28T02:37:30.134Z,38.34
2023-03-28T02:39:57.960Z,38.56
2023-03-28T02:42:26.035Z,37.59
2023-03-28T02:44:53.856Z,37.66
2023-03-28T02:47:21.687Z,37.81
2023-03-28T02:49:50.708Z,37.88
2023-03-28T02:52:20.454Z,37.99
2023-03-28T02:54:48.516Z,37.95
2023-03-28T02:57:16.750Z,38.06
2023-03-28T02:59:44.748Z,37.63
2023-03-28T03:02:13.436Z,38.22
2023-03-28T03:04:41.244Z,38.58
2023-03-28T03:07:09.708Z,38.44
2023-03-28T03:09:37.595Z,38.90
2023-03-28T03:12:05.394Z,37.99
2023-03-28T03:14:34.721Z,38.12
2023-03-28T03:17:02.518Z,38.06
2023-03-28T03:19:30.716Z,37.95
2023-03-28T03:21:58.482Z,38.55
2023-03-28T03:24:26.279Z,38.68
2023-03-28T03:26:54.261Z,38.30
2023-03-28T03:29:22.130Z,38.70
2023-03-28T03:31:49.950Z,37.79
2023-03-28T03:34:17.868Z,38.35
2023-03-28T03:36:46.041Z,37.71
2023-03-28T03:39:13.818Z,38.11
2023-03-28T03:41:41.767Z,37.81
2023-03-28T03:44:09.603Z,37.94
2023-03-28T03:46:37.541Z,38.55
2023-03-28T03:49:05.352Z,38.16
2023-03-28T03:51:34.234Z,37.64
2023-03-28T03:54:02.085Z,38.55
2023-03-28T03:56:30.090Z,38.24
2023-03-28T03:58:57.924Z,38.14
2023-03-28T04:01:30.297Z,38.47
2023-03-28T04:03:58.405Z,38.26
2023-03-28T04:06:26.270Z,38.55
2023-03-28T04:08:54.085Z,38.61
2023-03-28T04:11:21.882Z,38.19
2023-03-28T04:13:49.711Z,37.31
2023-03-28T04:16:17.534Z,37.97
2023-03-28T04:18:50.835Z,37.84
2023-03-28T04:21:18.865Z,38.11
2023-03-28T04:23:48.475Z,38.67
2023-03-28T04:26:20.735Z,38.21
2023-03-28T04:28:49.009Z,37.84
2023-03-28T04:31:16.838Z,37.62
2023-03-28T04:33:45.435Z,37.89
2023-03-28T04:36:16.932Z,38.11
2023-03-28T04:38:45.948Z,38.66
2023-03-28T04:41:13.771Z,37.98
2023-03-28T04:43:41.638Z,37.68
2023-03-28T04:46:09.644Z,37.65
2023-03-28T04:48:37.521Z,37.42
2023-03-28T04:51:05.294Z,38.27
2023-03-28T04:53:33.076Z,38.24
2023-03-28T04:56:01.255Z,37.81
2023-03-28T04:58:29.275Z,37.49
2023-03-28T05:00:57.128Z,38.23
2023-03-28T05:03:25.273Z,37.76
2023-03-28T05:05:54.351Z,38.32
2023-03-28T05:08:22.586Z,37.59
2023-03-28T05:10:50.594Z,37.48
2023-03-28T05:13:18.386Z,38.58
2023-03-28T05:15:46.165Z,38.42
2023-03-28T05:18:13.968Z,38.02
2023-03-28T05:20:42.121Z,37.78
2023-03-28T05:23:09.949Z,37.79
2023-03-28T05:25:37.929Z,38.53
2023-03-28T05:28:06.117Z,37.82
2023-03-28T05:30:34.023Z,38.57
2023-03-28T05:33:02.080Z,37.60
2023-03-28T05:35:29.890Z,37.94
2023-03-28T05:37:57.691Z,37.54
2023-03-28T05:40:25.824Z,37.80
2023-03-28T05:42:53.677Z,37.45
2023-03-28T05:45:21.434Z,37.65
2023-03-28T05:47:49.431Z,38.22
2023-03-28T05:50:17.322Z,37.75
2023-03-28T05:52:45.181Z,38.04
2023-03-28T05:55:13.088Z,37.36
2023-03-28T05:57:40.898Z,38.30
2023-03-28T06:00:14.667Z,37.18
2023-03-28T06:02:44.723Z,37.42
2023-03-28T06:05:12.554Z,37.57
2023-03-28T06:07:42.881Z,37.62
2023-03-28T06:10:11.160Z,38.02
2023-03-28T06:12:39.024Z,37.86
2023-03-28T06:15:07.001Z,37.71
2023-03-28T06:17:34.916Z,37.39
2023-03-28T06:20:04.181Z,37.66
2023-03-28T06:22:32.124Z,37.68
2023-03-28T06:24:59.925Z,36.58
2023-03-28T06:27:27.732Z,37.01
2023-03-28T06:29:55.581Z,37.42
2023-03-28T06:32:23.382Z,37.54
2023-03-28T06:34:51.174Z,36.84
2023-03-28T06:37:19.192Z,37.69
2023-03-28T06:39:47.024Z,37.48
2023-03-28T06:42:15.195Z,37.68
2023-03-28T06:44:42.969Z,37.12
2023-03-28T06:47:10.826Z,36.93
2023-03-28T06:49:38.661Z,37.89
2023-03-28T06:52:06.426Z,37.24
2023-03-28T06:54:34.335Z,37.17
2023-03-28T06:57:02.264Z,37.67
2023-03-28T06:59:30.582Z,37.46
2023-03-28T07:01:58.483Z,36.41
2023-03-28T07:04:26.332Z,36.53
2023-03-28T07:06:54.139Z,36.27
2023-03-28T07:09:21.992Z,37.22
2023-03-28T07:11:49.870Z,36.66
2023-03-28T07:14:17.672Z,37.44
2023-03-28T07:16:45.542Z,36.99
2023-03-28T07:19:13.342Z,37.15
2023-03-28T07:21:41.382Z,36.85
2023-03-28T07:24:09.176Z,36.69
2023-03-28T07:26:37.047Z,36.29
2023-03-28T07:29:04.915Z,36.62
2023-03-28T07:31:32.755Z,36.47
2023-03-28T07:34:00.722Z,37.49
2023-03-28T07:36:28.598Z,36.58
2023-03-28T07:38:56.683Z,37.58
2023-03-28T07:41:24.598Z,36.20
2023-03-28T07:43:52.527Z,36.83
2023-03-28T07:46:21.092Z,37.15
2023-03-28T07:48:49.081Z,37.30
2023-03-28T07:51:16.906Z,37.18
2023-03-28T07:53:45.220Z,36.94
2023-03-28T07:56:13.296Z,36.59
2023-03-28T07:58:41.204Z,37.43
2023-03-28T08:01:09.171Z,37.48
2023-03-28T08:03:37.413Z,36.38
2023-03-28T08:06:11.335Z,36.96
2023-03-28T08:08:45.447Z,36.43
2023-03-28T08:11:13.314Z,36.77
2023-03-28T08:13:41.423Z,36.70
2023-03-28T08:16:09.270Z,36.89
2023-03-28T08:18:37.232Z,36.79
2023-03-28T08:21:05.034Z,37.53
2023-03-28T08:23:32.962Z,37.00
2023-03-28T08:26:03.004Z,36.80
2023-03-28T08:28:30.843Z,36.41
2023-03-28T08:30:58.912Z,36.48
2023-03-28T08:33:26.894Z,37.21
2023-03-28T08:35:55.006Z,36.32
2023-03-28T08:38:23.691Z,36.74
2023-03-28T08:40:51.742Z,36.71
2023-03-28T08:43:19.574Z,36.51
2023-03-28T08:45:47.425Z,36.05
2023-03-28T08:48:15.708Z,36.11
2023-03-28T08:50:43.838Z,36.77
2023-03-28T08:53:11.689Z,36.59
2023-03-28T08:55:39.540Z,35.88
2023-03-28T08:58:09.789Z,36.18
2023-03-28T09:00:37.954Z,36.79
2023-03-28T09:03:05.915Z,36.36
2023-03-28T09:05:33.803Z,35.49
2023-03-28T09:08:01.673Z,36.20
2023-03-28T09:10:29.536Z,35.75
2023-03-28T09:12:57.401Z,36.33
2023-03-28T09:15:25.225Z,36.48
2023-03-28T09:17:53.193Z,35.80
2023-03-28T09:20:21.401Z,36.37
2023-03-28T09:22:49.266Z,35.71
2023-03-28T09:25:17.079Z,36.87
2023-03-28T09:27:44.899Z,35.80
2023-03-28T09:30:12.880Z,37.14
2023-03-28T09:32:41.124Z,36.54
2023-03-28T09:35:09.096Z,36.69
2023-03-28T09:37:36.988Z,35.53
2023-03-28T09:40:08.186Z,35.89
2023-03-28T09:42:36.290Z,35.77
2023-03-28T09:45:04.799Z,35.72
2023-03-28T09:47:32.728Z,35.98
2023-03-28T09:50:11.882Z,36.32
2023-03-28T09:52:40.524Z,35.43
2023-03-28T09:55:08.390Z,36.05
2023-03-28T09:57:36.208Z,35.61
2023-03-28T10:00:05.458Z,35.74
2023-03-28T10:02:33.486Z,36.24
2023-03-28T10:05:02.865Z,36.06
2023-03-28T10:07:32.794Z,35.51
2023-03-28T10:10:02.406Z,35.22
2023-03-28T10:12:30.234Z,36.10
2023-03-28T10:14:58.044Z,35.91
2023-03-28T10:17:25.871Z,35.34
2023-03-28T10:19:54.093Z,35.72
2023-03-28T10:22:22.016Z,35.65
2023-03-28T10:24:49.848Z,35.18
2023-03-28T10:27:18.101Z,35.84
2023-03-28T10:29:46.033Z,35.80
2023-03-28T10:32:13.972Z,35.33
2023-03-28T10:34:41.787Z,35.86
2023-03-28T10:37:09.617Z,36.48
2023-03-28T10:39:37.538Z,35.26
2023-03-28T10:42:05.408Z,36.13
2023-03-28T10:44:33.171Z,35.22
2023-03-28T10:47:00.984Z,35.77
2023-03-28T10:49:28.822Z,35.31
2023-03-28T10:51:56.684Z,35.47
2023-03-28T10:54:24.524Z,35.25
2023-03-28T10:56:53.679Z,35.41
2023-03-28T10:59:21.885Z,36.04
2023-03-28T11:01:49.675Z,36.15
2023-03-28T11:04:18.613Z,35.71
2023-03-28T11:06:46.533Z,35.90
2023-03-28T11:09:14.341Z,35.27
2023-03-28T11:11:42.265Z,35.78
2023-03-28T11:14:10.137Z,35.14
2023-03-28T11:16:38.058Z,34.94
2023-03-28T11:19:06.118Z,35.34
2023-03-28T11:21:33.893Z,35.60
2023-03-28T11:24:01.629Z,36.02
2023-03-28T11:26:29.396Z,35.73
2023-03-28T11:28:58.865Z,35.70
2023-03-28T11:31:26.734Z,35.38
2023-03-28T11:33:54.637Z,35.27
2023-03-28T11:36:22.410Z,35.11
2023-03-28T11:38:50.267Z,35.62
2023-03-28T11:41:18.086Z,35.87
2023-03-28T11:43:46.029Z,35.10
2023-03-28T11:46:13.956Z,35.30
2023-03-28T11:48:41.790Z,35.35
2023-03-28T11:51:09.632Z,35.85
2023-03-28T11:53:37.557Z,35.58
2023-03-28T11:56:06.801Z,35.75
2023-03-28T11:58:34.655Z,35.56
2023-03-28T12:01:02.990Z,35.51
2023-03-28T12:03:31.198Z,35.55
2023-03-28T12:06:04.510Z,35.65
2023-03-28T12:08:33.356Z,35.38
2023-03-28T12:11:01.558Z,35.14
2023-03-28T12:13:30.491Z,35.61
2023-03-28T12:15:58.376Z,35.61
2023-03-28T12:18:26.268Z,35.22
2023-03-28T12:20:56.079Z,35.28
2023-03-28T12:23:23.933Z,35.33
2023-03-28T12:25:51.756Z,35.28
2023-03-28T12:28:19.783Z,35.39
2023-03-28T12:30:48.932Z,34.74
2023-03-28T12:33:16.882Z,34.90
2023-03-28T12:35:44.867Z,35.10
2023-03-28T12:38:14.333Z,35.27
2023-03-28T12:40:42.197Z,35.57
2023-03-28T12:43:10.066Z,35.81
2023-03-28T12:45:38.027Z,35.73
2023-03-28T12:48:06.533Z,35.82
2023-03-28T12:50:34.469Z,36.04
2023-03-28T12:53:02.284Z,35.47
2023-03-28T12:55:31.533Z,35.70
2023-03-28T12:57:59.462Z,35.74
2023-03-28T13:00:27.511Z,35.81
2023-03-28T13:02:55.556Z,35.58
2023-03-28T13:05:23.339Z,36.04
2023-03-28T13:07:54.102Z,36.14
2023-03-28T13:10:22.171Z,36.37
2023-03-28T13:12:50.371Z,35.83
2023-03-28T13:15:18.171Z,36.18
2023-03-28T13:17:46.123Z,36.18
2023-03-28T13:20:14.037Z,36.12
2023-03-28T13:22:42.215Z,36.23
2023-03-28T13:25:10.064Z,36.25
2023-03-28T13:27:37.843Z,35.87
2023-03-28T13:30:05.721Z,36.48
2023-03-28T13:32:33.587Z,36.51
2023-03-28T13:35:01.843Z,35.71
2023-03-28T13:37:29.660Z,35.62
2023-03-28T13:39:57.442Z,35.33
2023-03-28T13:42:25.535Z,34.99
2023-03-28T13:44:53.325Z,35.01
2023-03-28T13:47:23.241Z,33.87
2023-03-28T13:49:51.268Z,33.97
2023-03-28T13:52:19.168Z,34.15
2023-03-28T13:54:53.888Z,33.92
2023-03-28T13:57:22.000Z,33.00
2023-03-28T13:59:50.009Z,33.21
2023-03-28T14:02:18.819Z,32.59
2023-03-28T14:04:46.615Z,32.39
2023-03-28T14:07:14.442Z,32.05
2023-03-28T14:09:42.277Z,32.65
2023-03-28T14:12:10.138Z,31.45
2023-03-28T14:14:37.967Z,31.30
2023-03-28T14:17:05.786Z,32.09
2023-03-28T14:19:34.222Z,32.04
2023-03-28T14:22:02.191Z,32.17
2023-03-28T14:24:30.017Z,31.56
2023-03-28T14:26:57.798Z,32.95
2023-03-28T14:29:25.616Z,32.75
2023-03-28T14:31:53.918Z,32.34
2023-03-28T14:34:24.165Z,31.84
2023-03-28T14:36:52.074Z,33.07
2023-03-28T14:39:19.875Z,33.23
2023-03-28T14:41:47.750Z,32.05
2023-03-28T14:44:15.627Z,32.44
2023-03-28T14:46:43.437Z,31.18
2023-03-28T14:49:11.241Z,32.26
2023-03-28T14:51:39.056Z,32.93
2023-03-28T14:54:06.929Z,33.11
2023-03-28T14:56:34.761Z,32.35
2023-03-28T14:59:02.599Z,32.66
2023-03-28T15:01:32.160Z,31.97
2023-03-28T15:04:01.954Z,32.23
2023-03-28T15:06:30.710Z,32.06
2023-03-28T15:08:58.543Z,31.17
2023-03-28T15:11:27.795Z,31.68
2023-03-28T15:13:55.861Z,31.88
2023-03-28T15:16:24.292Z,30.66
2023-03-28T15:18:52.227Z,30.56
2023-03-28T15:21:20.030Z,31.95
2023-03-28T15:23:47.823Z,32.78
2023-03-28T15:26:15.596Z,32.94
2023-03-28T15:28:43.373Z,33.67
2023-03-28T15:31:11.270Z,33.69
2023-03-28T15:33:39.360Z,33.85
2023-03-28T15:36:07.924Z,34.40
2023-03-28T15:38:36.081Z,34.35
2023-03-28T15:41:03.902Z,34.83
2023-03-28T15:43:31.679Z,34.65
2023-03-28T15:45:59.576Z,34.96
2023-03-28T15:48:27.737Z,34.86
2023-03-28T15:50:56.402Z,35.00
2023-03-28T15:53:24.266Z,34.99
2023-03-28T15:55:54.227Z,35.06
2023-03-28T15:58:23.511Z,34.97
2023-03-28T16:00:51.898Z,34.86
2023-03-28T16:03:19.921Z,35.19
2023-03-28T16:05:47.892Z,35.15
2023-03-28T16:08:15.765Z,35.24
2023-03-28T16:10:43.530Z,35.04
2023-03-28T16:13:14.553Z,34.95
2023-03-28T16:15:42.571Z,35.04
2023-03-28T16:18:10.433Z,34.70
2023-03-28T16:20:38.458Z,35.37
2023-03-28T16:23:07.155Z,33.92
2023-03-28T16:25:35.110Z,32.85
2023-03-28T16:28:02.948Z,34.17
2023-03-28T16:30:31.811Z,35.02
2023-03-28T16:32:59.986Z,34.49
2023-03-28T16:35:28.771Z,34.97
2023-03-28T16:40:50.087Z,34.64
2023-03-28T16:43:18.091Z,34.10
2023-03-28T16:45:45.946Z,33.67
2023-03-28T16:48:14.104Z,30.70
2023-03-28T16:50:41.844Z,32.50
2023-03-28T16:53:09.660Z,33.44
2023-03-28T16:55:37.471Z,32.31
2023-03-28T16:58:05.392Z,33.24
2023-03-28T17:00:33.917Z,33.43
2023-03-28T17:03:02.085Z,32.39
2023-03-28T17:05:29.922Z,32.38
2023-03-28T17:07:59.639Z,32.38
2023-03-28T17:10:29.377Z,32.08
2023-03-28T17:12:57.942Z,33.06
2023-03-28T17:15:26.189Z,33.71
2023-03-28T17:17:54.905Z,34.00
2023-03-28T17:20:22.798Z,34.23
2023-03-28T17:22:50.642Z,34.50
2023-03-28T17:25:19.163Z,34.35
2023-03-28T17:27:46.954Z,34.33
2023-03-28T17:30:14.823Z,33.93
2023-03-28T17:32:42.750Z,33.88
2023-03-28T17:35:12.073Z,34.72
2023-03-28T17:37:40.124Z,34.76
2023-03-28T17:40:08.114Z,34.87
2023-03-28T17:42:35.874Z,34.44
2023-03-28T17:45:03.831Z,34.49
2023-03-28T17:47:32.057Z,34.20
2023-03-28T17:50:00.618Z,33.73
2023-03-28T17:52:29.919Z,34.36
2023-03-28T17:54:58.812Z,34.05
2023-03-28T17:57:26.772Z,34.03
2023-03-28T17:59:54.730Z,34.23
2023-03-28T18:02:22.608Z,34.14
2023-03-28T18:04:51.191Z,34.68
2023-03-28T18:07:18.996Z,34.63
2023-03-28T18:09:46.783Z,35.03
2023-03-28T18:12:14.593Z,34.47
2023-03-28T18:14:42.424Z,34.76
2023-03-28T18:17:10.299Z,34.85
2023-03-28T18:19:38.139Z,35.04
2023-03-28T18:22:05.930Z,34.76
2023-03-28T18:24:34.208Z,35.33
2023-03-28T18:27:02.354Z,35.56
2023-03-28T18:29:31.166Z,35.65
2023-03-28T18:31:59.261Z,35.01
2023-03-28T18:34:27.501Z,35.28
2023-03-28T18:36:55.796Z,34.94
2023-03-28T18:39:24.409Z,35.15
2023-03-28T18:41:52.299Z,35.52
2023-03-28T18:44:20.111Z,35.62
2023-03-28T18:46:54.801Z,35.37
2023-03-28T18:49:22.831Z,35.54
2023-03-28T18:51:50.686Z,35.52
2023-03-28T18:54:18.490Z,35.41
2023-03-28T18:56:46.573Z,35.68
2023-03-28T18:59:14.394Z,35.61
2023-03-28T19:01:44.993Z,35.67
2023-03-28T19:04:13.091Z,35.69
2023-03-28T19:06:41.380Z,35.48
2023-03-28T19:09:09.175Z,35.95
2023-03-28T19:11:36.944Z,35.36
2023-03-28T19:14:04.754Z,35.67
2023-03-28T19:16:32.624Z,35.81
2023-03-28T19:19:00.404Z,35.51
2023-03-28T19:21:28.596Z,35.88
2023-03-28T19:23:56.474Z,35.84
2023-03-28T19:26:24.453Z,36.01
2023-03-28T19:28:52.264Z,35.55
2023-03-28T19:31:21.879Z,35.73
2023-03-28T19:33:49.962Z,35.79
2023-03-28T19:36:17.966Z,35.55
2023-03-28T19:38:45.875Z,35.88
2023-03-28T19:41:15.684Z,35.77
2023-03-28T19:43:43.765Z,35.78
2023-03-28T19:46:11.644Z,35.55
2023-03-28T19:48:39.541Z,35.83
2023-03-28T19:51:07.309Z,35.78
2023-03-28T19:53:35.148Z,35.94
2023-03-28T19:56:03.208Z,35.51
2023-03-28T19:58:31.326Z,36.19
2023-03-28T20:00:59.672Z,35.88
2023-03-28T20:03:27.596Z,35.67
2023-03-28T20:05:55.362Z,36.28
2023-03-28T20:08:23.166Z,35.91
2023-03-28T20:10:51.326Z,35.81
2023-03-28T20:13:19.206Z,36.44
2023-03-28T20:15:47.116Z,36.27
2023-03-28T20:18:15.754Z,35.97
2023-03-28T20:20:43.792Z,35.76
2023-03-28T20:23:11.863Z,35.93
2023-03-28T20:25:39.646Z,35.91
2023-03-28T20:28:10.143Z,36.15
2023-03-28T20:30:37.995Z,35.49
2023-03-28T20:33:05.852Z,35.96
2023-03-28T20:35:33.738Z,36.09
2023-03-28T20:38:01.515Z,35.85
2023-03-28T20:40:29.336Z,36.43
2023-03-28T20:42:57.560Z,36.37
2023-03-28T20:45:25.760Z,36.48
2023-03-28T20:47:58.669Z,36.35
2023-03-28T20:50:34.145Z,35.96
2023-03-28T20:53:02.073Z,36.20
2023-03-28T20:55:31.373Z,35.85
2023-03-28T20:57:59.493Z,36.34
2023-03-28T21:00:30.154Z,35.94
2023-03-28T21:02:58.043Z,36.27
2023-03-28T21:05:27.267Z,35.87
2023-03-28T21:07:55.536Z,35.89
2023-03-28T21:10:23.599Z,36.18
2023-03-28T21:12:51.654Z,36.08
2023-03-28T21:15:19.495Z,36.80
2023-03-28T21:17:49.571Z,36.52
2023-03-28T21:20:19.108Z,35.76
2023-03-28T21:22:46.879Z,36.39
2023-03-28T21:25:14.856Z,36.20
2023-03-28T21:27:43.217Z,36.11
2023-03-28T21:30:13.414Z,36.71
2023-03-28T21:32:41.927Z,36.66
2023-03-28T21:35:10.448Z,36.20
2023-03-28T21:37:38.223Z,36.63
2023-03-28T21:40:08.592Z,36.15
2023-03-28T21:42:36.507Z,36.44
2023-03-28T21:45:04.447Z,36.04
2023-03-28T21:47:32.448Z,36.27
2023-03-28T21:50:00.689Z,36.15
2023-03-28T21:52:28.498Z,36.10
2023-03-28T21:54:56.335Z,36.39
2023-03-28T21:57:24.343Z,36.13
2023-03-28T21:59:52.139Z,36.16
2023-03-28T22:02:20.155Z,36.46
2023-03-28T22:04:48.227Z,35.94
2023-03-28T22:07:16.363Z,36.16
2023-03-28T22:09:44.683Z,36.73
2023-03-28T22:12:15.171Z,36.50
2023-03-28T22:14:42.991Z,36.54
2023-03-28T22:17:11.000Z,36.71
2023-03-28T22:19:38.909Z,36.11
2023-03-28T22:22:06.739Z,36.33
2023-03-28T22:24:34.786Z,36.18
2023-03-28T22:27:02.579Z,35.69
2023-03-28T22:29:30.400Z,36.60
2023-03-28T22:31:58.320Z,36.08
2023-03-28T22:34:26.494Z,36.27
2023-03-28T22:36:54.967Z,36.14
2023-03-28T22:39:22.848Z,36.42
2023-03-28T22:41:51.144Z,36.38
2023-03-28T22:44:21.867Z,35.27
2023-03-28T22:46:49.841Z,35.87
2023-03-28T22:49:22.097Z,36.81
2023-03-28T22:51:49.978Z,36.02
2023-03-28T22:54:21.130Z,36.68
2023-03-28T22:56:49.125Z,36.03
2023-03-28T22:59:17.120Z,36.62
2023-03-28T23:01:45.582Z,36.11
2023-03-28T23:04:13.551Z,35.75
2023-03-28T23:06:41.589Z,36.57
2023-03-28T23:09:09.524Z,37.00
2023-03-28T23:11:37.285Z,36.15
2023-03-28T23:14:05.289Z,36.28
2023-03-28T23:16:33.560Z,36.62
2023-03-28T23:19:01.379Z,36.33
2023-03-28T23:21:30.981Z,35.86
2023-03-28T23:23:58.876Z,36.16
2023-03-28T23:26:26.624Z,36.55
2023-03-28T23:28:54.444Z,35.94
2023-03-28T23:31:22.352Z,36.56
2023-03-28T23:33:50.241Z,35.91
2023-03-28T23:36:20.656Z,36.29
2023-03-28T23:38:48.610Z,36.20
2023-03-28T23:41:16.689Z,36.47
2023-03-28T23:43:44.546Z,35.80
2023-03-28T23:46:12.736Z,35.55
2023-03-28T23:48:40.627Z,36.05
2023-03-28T23:51:09.066Z,36.10
2023-03-28T23:53:36.870Z,36.28
2023-03-28T23:56:04.677Z,35.86
2023-03-28T23:58:32.535Z,35.57
